createdAt,value
2019-01-08T00:02:25.270Z,101275.32
2019-01-08T00:04:57.299Z,101275.27
2019-01-08T00:07:27.952Z,101277.43
2019-01-08T00:09:58.420Z,101279.55
2019-01-08T00:12:29.133Z,101280.38
2019-01-08T00:14:59.829Z,101276.12
2019-01-08T00:17:30.447Z,101275.25
2019-01-08T00:20:01.122Z,101279.91
2019-01-08T00:22:31.654Z,101277.36
2019-01-08T00:25:02.125Z,101284.59
2019-01-08T00:27:33.660Z,101282.44
2019-01-08T00:30:04.060Z,101281.15
2019-01-08T00:32:34.641Z,101287.07
2019-01-08T00:35:05.655Z,101287.94
2019-01-08T00:37:36.188Z,101279.89
2019-01-08T00:40:06.953Z,101284.50
2019-01-08T00:42:37.510Z,101287.06
2019-01-08T00:45:08.034Z,101277.72
2019-01-08T00:47:38.914Z,101279.00
2019-01-08T00:50:09.691Z,101276.43
2019-01-08T00:52:40.178Z,101275.14
2019-01-08T00:55:10.750Z,101281.86
2019-01-08T00:57:41.229Z,101268.68
2019-01-08T01:00:12.207Z,101266.50
2019-01-08T01:02:43.066Z,101266.00
2019-01-08T01:05:13.575Z,101263.88
2019-01-08T01:07:44.164Z,101258.76
2019-01-08T01:10:14.999Z,101254.94
2019-01-08T01:12:45.570Z,101263.87
2019-01-08T01:15:17.228Z,101253.68
2019-01-08T01:17:47.781Z,101252.76
2019-01-08T01:20:18.391Z,101252.76
2019-01-08T01:22:49.082Z,101243.84
2019-01-08T01:25:19.695Z,101249.43
2019-01-08T01:27:51.351Z,101247.29
2019-01-08T01:30:21.921Z,101235.34
2019-01-08T01:32:52.596Z,101241.73
2019-01-08T01:35:23.084Z,101240.05
2019-01-08T01:37:54.032Z,101238.39
2019-01-08T01:40:24.623Z,101227.31
2019-01-08T01:42:55.164Z,101231.59
2019-01-08T01:45:27.132Z,101228.16
2019-01-08T01:47:57.835Z,101232.38
2019-01-08T01:50:28.310Z,101224.73
2019-01-08T01:53:01.476Z,101226.39
2019-01-08T01:55:32.072Z,101214.05
2019-01-08T01:58:02.570Z,101215.33
2019-01-08T02:00:33.063Z,101211.47
2019-01-08T02:03:05.045Z,101214.81
2019-01-08T02:05:35.664Z,101213.96
2019-01-08T02:08:06.225Z,101199.94
2019-01-08T02:10:36.724Z,101197.34
2019-01-08T02:13:07.177Z,101197.34
2019-01-08T02:15:38.123Z,101199.89
2019-01-08T02:18:08.685Z,101197.70
2019-01-08T02:20:39.069Z,101200.63
2019-01-08T02:23:09.622Z,101195.06
2019-01-08T02:25:40.207Z,101187.42
2019-01-08T02:28:10.769Z,101187.45
2019-01-08T02:30:41.552Z,101193.37
2019-01-08T02:33:13.170Z,101191.22
2019-01-08T02:35:44.080Z,101179.27
2019-01-08T02:38:15.606Z,101185.23
2019-01-08T02:40:46.320Z,101173.77
2019-01-08T02:43:17.324Z,101169.97
2019-01-08T02:45:47.804Z,101171.67
2019-01-08T02:48:18.458Z,101168.30
2019-01-08T02:50:49.004Z,101163.20
2019-01-08T02:53:19.636Z,101169.97
2019-01-08T02:55:51.476Z,101171.72
2019-01-08T02:58:22.863Z,101177.19
2019-01-08T03:00:53.561Z,101173.41
2019-01-08T03:03:24.112Z,101181.06
2019-01-08T03:05:54.905Z,101176.73
2019-01-08T03:08:25.904Z,101176.73
2019-01-08T03:10:56.614Z,101177.52
2019-01-08T03:13:27.046Z,101177.52
2019-01-08T03:15:57.604Z,101179.66
2019-01-08T03:18:28.074Z,101172.03
2019-01-08T03:20:58.658Z,101182.57
2019-01-08T03:23:29.277Z,101182.59
2019-01-08T03:25:59.689Z,101180.53
2019-01-08T03:28:30.267Z,101189.03
2019-01-08T03:31:01.079Z,101189.03
2019-01-08T03:33:31.511Z,101188.95
2019-01-08T03:36:02.055Z,101193.17
2019-01-08T03:38:32.722Z,101193.69
2019-01-08T03:41:03.310Z,101189.41
2019-01-08T03:43:33.792Z,101197.86
2019-01-08T03:46:04.530Z,101197.83
2019-01-08T03:48:35.022Z,101189.78
2019-01-08T03:51:05.758Z,101197.84
2019-01-08T03:53:36.234Z,101190.98
2019-01-08T03:56:06.667Z,101186.70
2019-01-08T03:58:37.113Z,101188.41
2019-01-08T04:01:07.849Z,101177.87
2019-01-08T04:03:38.403Z,101177.87
2019-01-08T04:06:08.918Z,101176.97
2019-01-08T04:08:39.530Z,101174.42
2019-01-08T04:11:10.378Z,101171.88
2019-01-08T04:13:41.157Z,101173.13
2019-01-08T04:16:11.601Z,101168.06
2019-01-08T04:18:44.536Z,101174.40
2019-01-08T04:21:15.203Z,101170.94
2019-01-08T04:23:45.713Z,101159.88
2019-01-08T04:26:16.243Z,101160.20
2019-01-08T04:28:46.766Z,101155.56
2019-01-08T04:31:17.374Z,101150.05
2019-01-08T04:33:47.929Z,101141.14
2019-01-08T04:36:18.592Z,101141.58
2019-01-08T04:38:49.313Z,101141.16
2019-01-08T04:41:19.856Z,101140.38
2019-01-08T04:43:50.455Z,101142.86
2019-01-08T04:46:20.986Z,101143.73
2019-01-08T04:48:51.803Z,101146.34
2019-01-08T04:51:24.209Z,101151.84
2019-01-08T04:53:54.652Z,101137.89
2019-01-08T04:56:25.249Z,101144.23
2019-01-08T04:58:55.777Z,101142.05
2019-01-08T05:01:26.807Z,101140.36
2019-01-08T05:03:57.238Z,101136.59
2019-01-08T05:06:27.787Z,101139.52
2019-01-08T05:08:58.575Z,101129.81
2019-01-08T05:11:29.368Z,101128.84
2019-01-08T05:14:00.299Z,101127.95
2019-01-08T05:16:31.076Z,101126.67
2019-01-08T05:19:01.631Z,101130.95
2019-01-08T05:21:32.150Z,101130.96
2019-01-08T05:24:02.753Z,101129.58
2019-01-08T05:26:33.560Z,101121.54
2019-01-08T05:29:04.263Z,101118.50
2019-01-08T05:31:36.057Z,101122.33
2019-01-08T05:34:06.816Z,101119.36
2019-01-08T05:36:37.497Z,101109.17
2019-01-08T05:39:08.369Z,101111.37
2019-01-08T05:41:38.861Z,101105.88
2019-01-08T05:44:10.065Z,101116.09
2019-01-08T05:46:40.994Z,101122.45
2019-01-08T05:49:11.802Z,101122.47
2019-01-08T05:51:42.726Z,101121.57
2019-01-08T05:54:13.455Z,101113.12
2019-01-08T05:56:46.859Z,101115.66
2019-01-08T05:59:21.235Z,101121.13
2019-01-08T06:01:52.048Z,101117.33
2019-01-08T06:04:22.562Z,101113.93
2019-01-08T06:06:53.251Z,101124.11
2019-01-08T06:09:23.951Z,101114.33
2019-01-08T06:11:54.408Z,101118.51
2019-01-08T06:14:24.823Z,101118.95
2019-01-08T06:16:55.403Z,101114.38
2019-01-08T06:19:26.035Z,101118.59
2019-01-08T06:21:57.023Z,101122.03
2019-01-08T06:24:27.517Z,101122.87
2019-01-08T06:26:58.052Z,101128.39
2019-01-08T06:29:28.706Z,101121.59
2019-01-08T06:31:59.473Z,101118.63
2019-01-08T06:34:29.940Z,101121.22
2019-01-08T06:37:02.000Z,101121.32
2019-01-08T06:39:32.732Z,101119.66
2019-01-08T06:42:04.438Z,101116.71
2019-01-08T06:44:35.140Z,101117.60
2019-01-08T06:47:06.369Z,101123.20
2019-01-08T06:49:37.265Z,101118.91
2019-01-08T06:52:07.830Z,101115.95
2019-01-08T06:54:38.685Z,101117.73
2019-01-08T06:57:10.683Z,101117.73
2019-01-08T06:59:41.345Z,101115.64
2019-01-08T07:02:12.048Z,101109.72
2019-01-08T07:04:42.857Z,101109.72
2019-01-08T07:07:13.349Z,101113.16
2019-01-08T07:09:44.118Z,101116.98
2019-01-08T07:12:16.065Z,101117.89
2019-01-08T07:14:47.334Z,101121.81
2019-01-08T07:17:20.443Z,101109.16
2019-01-08T07:19:51.620Z,101116.42
2019-01-08T07:22:22.635Z,101105.00
2019-01-08T07:24:53.363Z,101103.33
2019-01-08T07:27:24.453Z,101103.73
2019-01-08T07:29:54.962Z,101089.31
2019-01-08T07:32:26.742Z,101084.21
2019-01-08T07:34:57.326Z,101085.49
2019-01-08T07:37:27.615Z,101077.02
2019-01-08T07:39:58.013Z,101075.78
2019-01-08T07:42:28.709Z,101072.39
2019-01-08T07:44:59.262Z,101067.70
2019-01-08T07:47:29.598Z,101067.31
2019-01-08T07:50:00.209Z,101078.33
2019-01-08T07:52:30.741Z,101069.84
2019-01-08T07:55:01.504Z,101065.59
2019-01-08T07:57:32.156Z,101061.34
2019-01-08T08:00:02.837Z,101063.45
2019-01-08T08:02:33.571Z,101060.48
2019-01-08T08:05:04.695Z,101061.33
2019-01-08T08:07:35.193Z,101058.38
2019-01-08T08:10:05.891Z,101053.67
2019-01-08T08:12:36.491Z,101051.13
2019-01-08T08:15:07.879Z,101040.90
2019-01-08T08:17:40.974Z,101035.80
2019-01-08T08:20:11.537Z,101030.66
2019-01-08T08:22:42.165Z,101030.67
2019-01-08T08:25:14.997Z,101023.84
2019-01-08T08:27:45.386Z,101026.72
2019-01-08T08:30:16.197Z,101018.56
2019-01-08T08:32:46.934Z,101012.97
2019-01-08T08:35:17.614Z,101009.41
2019-01-08T08:37:48.699Z,101010.29
2019-01-08T08:40:19.319Z,101005.10
2019-01-08T08:42:49.817Z,100995.89
2019-01-08T08:45:20.418Z,100996.64
2019-01-08T08:47:50.955Z,100997.03
2019-01-08T08:50:21.588Z,100991.48
2019-01-08T08:52:52.247Z,100989.77
2019-01-08T08:55:23.012Z,100978.48
2019-01-08T08:57:53.766Z,100975.70
2019-01-08T09:00:25.437Z,100972.25
2019-01-08T09:02:56.290Z,100972.28
2019-01-08T09:05:26.981Z,100968.89
2019-01-08T09:07:57.674Z,100957.77
2019-01-08T09:10:28.245Z,100956.19
2019-01-08T09:12:59.831Z,100952.78
2019-01-08T09:15:30.446Z,100943.95
2019-01-08T09:18:01.553Z,100942.53
2019-01-08T09:20:32.217Z,100944.45
2019-01-08T09:23:02.693Z,100938.44
2019-01-08T09:25:34.556Z,100935.48
2019-01-08T09:28:06.092Z,100936.00
2019-01-08T09:30:38.413Z,100934.72
2019-01-08T09:33:09.213Z,100934.69
2019-01-08T09:35:41.731Z,100915.52
2019-01-08T09:38:12.369Z,100915.05
2019-01-08T09:40:43.979Z,100904.73
2019-01-08T09:43:14.704Z,100898.76
2019-01-08T09:45:45.435Z,100901.58
2019-01-08T09:48:15.861Z,100891.75
2019-01-08T09:50:46.445Z,100886.97
2019-01-08T09:53:17.500Z,100886.59
2019-01-08T09:55:49.385Z,100874.66
2019-01-08T09:58:19.854Z,100876.34
2019-01-08T10:00:50.854Z,100870.38
2019-01-08T10:03:22.017Z,100867.37
2019-01-08T10:05:52.379Z,100863.53
2019-01-08T10:08:23.234Z,100863.47
2019-01-08T10:10:53.938Z,100855.70
2019-01-08T10:13:24.533Z,100851.33
2019-01-08T10:15:57.152Z,100843.73
2019-01-08T10:18:27.650Z,100837.77
2019-01-08T10:20:58.100Z,100825.99
2019-01-08T10:23:29.522Z,100823.86
2019-01-08T10:26:00.105Z,100819.23
2019-01-08T10:28:32.478Z,100816.25
2019-01-08T10:31:03.642Z,100807.45
2019-01-08T10:33:34.147Z,100799.20
2019-01-08T10:36:04.851Z,100795.73
2019-01-08T10:38:35.473Z,100791.12
2019-01-08T10:41:06.004Z,100788.85
2019-01-08T10:43:36.505Z,100784.62
2019-01-08T10:46:06.979Z,100778.42
2019-01-08T10:48:38.800Z,100774.46
2019-01-08T10:51:09.260Z,100770.27
2019-01-08T10:53:40.489Z,100759.94
2019-01-08T10:56:11.037Z,100759.91
2019-01-08T10:58:41.662Z,100749.14
2019-01-08T11:01:12.879Z,100747.52
2019-01-08T11:03:43.747Z,100743.10
2019-01-08T11:06:15.574Z,100736.72
2019-01-08T11:08:46.132Z,100727.56
2019-01-08T11:11:16.598Z,100722.39
2019-01-08T11:13:47.118Z,100714.63
2019-01-08T11:16:18.363Z,100716.29
2019-01-08T11:18:49.270Z,100709.85
2019-01-08T11:21:19.800Z,100706.11
2019-01-08T11:23:50.216Z,100703.84
2019-01-08T11:26:20.755Z,100698.96
2019-01-08T11:28:51.298Z,100690.95
2019-01-08T11:31:21.690Z,100687.98
2019-01-08T11:33:52.267Z,100687.61
2019-01-08T11:36:22.784Z,100683.72
2019-01-08T11:38:53.293Z,100670.95
2019-01-08T11:41:23.645Z,100670.93
2019-01-08T11:43:54.183Z,100664.02
2019-01-08T11:46:24.786Z,100655.47
2019-01-08T11:48:55.344Z,100654.98
2019-01-08T11:51:25.785Z,100655.41
2019-01-08T11:53:56.492Z,100656.31
2019-01-08T11:56:27.353Z,100645.95
2019-01-08T11:58:57.975Z,100644.36
2019-01-08T12:01:28.377Z,100642.08
2019-01-08T12:03:59.819Z,100631.66
2019-01-08T12:06:30.663Z,100640.59
2019-01-08T12:09:01.285Z,100636.47
2019-01-08T12:11:31.809Z,100629.87
2019-01-08T12:14:02.461Z,100614.34
2019-01-08T12:16:32.959Z,100625.76
2019-01-08T12:19:03.482Z,100624.27
2019-01-08T12:21:33.977Z,100615.27
2019-01-08T12:24:04.687Z,100611.94
2019-01-08T12:26:36.094Z,100617.30
2019-01-08T12:29:06.503Z,100612.73
2019-01-08T12:31:37.086Z,100603.94
2019-01-08T12:34:08.783Z,100615.53
2019-01-08T12:36:39.201Z,100612.05
2019-01-08T12:39:10.059Z,100615.70
2019-01-08T12:41:40.791Z,100615.06
2019-01-08T12:44:11.206Z,100619.89
2019-01-08T12:46:41.792Z,100622.83
2019-01-08T12:49:12.580Z,100617.44
2019-01-08T12:51:42.997Z,100620.83
2019-01-08T12:54:14.576Z,100623.47
2019-01-08T12:56:45.121Z,100623.50
2019-01-08T12:59:15.664Z,100619.23
2019-01-08T13:01:46.417Z,100616.64
2019-01-08T13:04:17.161Z,100612.42
2019-01-08T13:06:47.524Z,100614.11
2019-01-08T13:09:17.986Z,100610.34
2019-01-08T13:11:48.322Z,100598.77
2019-01-08T13:14:19.162Z,100595.91
2019-01-08T13:16:50.425Z,100596.81
2019-01-08T13:19:20.807Z,100599.67
2019-01-08T13:21:51.532Z,100596.17
2019-01-08T13:24:29.213Z,100583.42
2019-01-08T13:26:59.636Z,100591.59
2019-01-08T13:29:29.700Z,100581.74
2019-01-08T13:32:00.482Z,100579.20
2019-01-08T13:34:30.860Z,100571.55
2019-01-08T13:37:01.275Z,100557.77
2019-01-08T13:39:32.036Z,100559.03
2019-01-08T13:42:02.457Z,100561.13
2019-01-08T13:44:32.889Z,100558.57
2019-01-08T13:47:03.786Z,100559.42
2019-01-08T13:49:34.307Z,100555.05
2019-01-08T13:52:05.304Z,100554.98
2019-01-08T13:54:35.765Z,100552.36
2019-01-08T13:57:06.167Z,100544.61
2019-01-08T13:59:36.902Z,100549.86
2019-01-08T14:02:07.443Z,100546.95
2019-01-08T14:04:38.036Z,100540.61
2019-01-08T14:07:08.501Z,100547.47
2019-01-08T14:09:38.949Z,100540.30
2019-01-08T14:12:09.400Z,100544.69
2019-01-08T14:14:39.830Z,100539.08
2019-01-08T14:17:10.605Z,100535.63
2019-01-08T14:19:41.352Z,100530.84
2019-01-08T14:22:11.655Z,100534.60
2019-01-08T14:24:42.932Z,100534.17
2019-01-08T14:27:14.262Z,100527.44
2019-01-08T14:29:44.679Z,100527.74
2019-01-08T14:32:16.588Z,100521.37
2019-01-08T14:34:47.993Z,100525.97
2019-01-08T14:37:18.376Z,100528.99
2019-01-08T14:39:48.836Z,100523.59
2019-01-08T14:42:19.500Z,100516.76
2019-01-08T14:44:50.441Z,100513.06
2019-01-08T14:47:21.160Z,100506.31
2019-01-08T14:49:51.889Z,100501.31
2019-01-08T14:52:22.346Z,100504.81
2019-01-08T14:54:52.894Z,100497.59
2019-01-08T14:57:24.624Z,100495.09
2019-01-08T14:59:55.004Z,100492.61
2019-01-08T15:02:25.950Z,100488.70
2019-01-08T15:04:57.953Z,100490.05
2019-01-08T15:07:28.415Z,100487.15
2019-01-08T15:09:59.398Z,100488.56
2019-01-08T15:12:30.193Z,100492.83
2019-01-08T15:15:00.711Z,100489.62
2019-01-08T15:17:31.866Z,100486.62
2019-01-08T15:20:02.495Z,100486.98
2019-01-08T15:22:32.883Z,100483.64
2019-01-08T15:25:03.663Z,100479.34
2019-01-08T15:27:34.083Z,100476.47
2019-01-08T15:30:04.711Z,100473.50
2019-01-08T15:32:36.181Z,100469.32
2019-01-08T15:35:07.337Z,100468.49
2019-01-08T15:37:37.879Z,100464.59
2019-01-08T15:40:08.477Z,100465.96
2019-01-08T15:42:38.978Z,100455.83
2019-01-08T15:45:09.595Z,100451.53
2019-01-08T15:47:40.316Z,100447.33
2019-01-08T15:50:12.407Z,100441.81
2019-01-08T15:52:42.916Z,100443.30
2019-01-08T15:55:13.472Z,100439.08
2019-01-08T15:57:44.069Z,100441.64
2019-01-08T16:00:15.608Z,100439.98
2019-01-08T16:02:46.702Z,100445.08
2019-01-08T16:05:17.183Z,100442.14
2019-01-08T16:07:47.967Z,100442.97
2019-01-08T16:10:19.096Z,100445.25
2019-01-08T16:12:49.686Z,100445.34
2019-01-08T16:15:21.328Z,100438.50
2019-01-08T16:17:51.765Z,100436.42
2019-01-08T16:20:22.335Z,100441.13
2019-01-08T16:22:53.005Z,100442.08
2019-01-08T16:25:23.726Z,100437.10
2019-01-08T16:27:54.361Z,100430.52
2019-01-08T16:30:24.933Z,100432.33
2019-01-08T16:32:55.527Z,100437.88
2019-01-08T16:35:26.238Z,100434.11
2019-01-08T16:37:56.806Z,100434.60
2019-01-08T16:40:27.446Z,100432.47
2019-01-08T16:42:59.372Z,100429.95
2019-01-08T16:45:30.056Z,100427.89
2019-01-08T16:48:01.123Z,100432.12
2019-01-08T16:50:31.948Z,100426.22
2019-01-08T16:53:03.031Z,100428.38
2019-01-08T16:55:33.596Z,100430.97
2019-01-08T16:58:04.270Z,100433.52
2019-01-08T17:00:34.704Z,100428.13
2019-01-08T17:03:05.449Z,100436.22
2019-01-08T17:05:35.853Z,100426.87
2019-01-08T17:08:06.635Z,100436.24
2019-01-08T17:10:37.761Z,100432.45
2019-01-08T17:13:08.589Z,100431.62
2019-01-08T17:15:39.640Z,100431.95
2019-01-08T17:18:10.353Z,100431.52
2019-01-08T17:20:41.601Z,100444.73
2019-01-08T17:23:12.361Z,100438.33
2019-01-08T17:25:47.943Z,100433.67
2019-01-08T17:28:17.545Z,100432.45
2019-01-08T17:30:48.222Z,100432.41
2019-01-08T17:33:18.681Z,100435.37
2019-01-08T17:35:49.314Z,100432.89
2019-01-08T17:38:21.033Z,100434.52
2019-01-08T17:40:51.577Z,100427.70
2019-01-08T17:43:22.019Z,100427.35
2019-01-08T17:45:53.296Z,100428.72
2019-01-08T17:48:23.719Z,100435.98
2019-01-08T17:50:54.410Z,100425.39
2019-01-08T17:53:26.190Z,100427.98
2019-01-08T17:55:57.332Z,100422.06
2019-01-08T17:58:44.748Z,100425.87
2019-01-08T18:01:28.524Z,100420.27
2019-01-08T18:03:59.201Z,100416.86
2019-01-08T18:06:29.775Z,100417.30
2019-01-08T18:09:00.418Z,100414.80
2019-01-08T18:11:30.833Z,100412.63
2019-01-08T18:14:01.261Z,100408.72
2019-01-08T18:16:32.711Z,100410.76
2019-01-08T18:19:03.571Z,100416.37
2019-01-08T18:21:34.163Z,100410.76
2019-01-08T18:24:05.191Z,100405.66
2019-01-08T18:26:35.896Z,100410.44
2019-01-08T18:29:06.664Z,100407.05
2019-01-08T18:31:37.222Z,100406.23
2019-01-08T18:34:07.818Z,100410.16
2019-01-08T18:36:38.694Z,100408.41
2019-01-08T18:39:10.822Z,100404.16
2019-01-08T18:41:41.764Z,100400.31
2019-01-08T18:44:12.238Z,100397.81
2019-01-08T18:46:43.848Z,100396.58
2019-01-08T18:49:14.523Z,100398.27
2019-01-08T18:51:45.514Z,100391.49
2019-01-08T18:54:16.318Z,100391.45
2019-01-08T18:56:47.106Z,100386.87
2019-01-08T18:59:17.662Z,100381.74
2019-01-08T19:01:48.320Z,100376.23
2019-01-08T19:04:19.219Z,100376.24
2019-01-08T19:06:49.879Z,100369.80
2019-01-08T19:09:51.780Z,100368.57
2019-01-08T19:12:24.974Z,100358.00
2019-01-08T19:14:55.607Z,100354.17
2019-01-08T19:17:26.605Z,100354.16
2019-01-08T19:19:57.137Z,100348.17
2019-01-08T19:22:27.713Z,100347.70
2019-01-08T19:24:58.200Z,100348.16
2019-01-08T19:27:28.719Z,100343.80
2019-01-08T19:29:59.317Z,100343.69
2019-01-08T19:32:31.318Z,100336.92
2019-01-08T19:35:01.738Z,100342.86
2019-01-08T19:37:32.586Z,100337.16
2019-01-08T19:40:03.479Z,100329.12
2019-01-08T19:42:34.215Z,100329.12
2019-01-08T19:45:05.199Z,100328.27
2019-01-08T19:47:35.917Z,100326.47
2019-01-08T19:50:08.699Z,100329.05
2019-01-08T19:52:39.242Z,100320.97
2019-01-08T19:55:09.687Z,100315.87
2019-01-08T19:57:40.462Z,100318.12
2019-01-08T20:00:12.552Z,100318.55
2019-01-08T20:02:43.205Z,100309.97
2019-01-08T20:05:13.675Z,100311.30
2019-01-08T20:07:44.288Z,100310.45
2019-01-08T20:10:15.215Z,100302.77
2019-01-08T20:12:45.911Z,100301.87
2019-01-08T20:15:16.409Z,100291.62
2019-01-08T20:17:48.224Z,100290.73
2019-01-08T20:20:18.857Z,100281.01
2019-01-08T20:22:49.555Z,100275.91
2019-01-08T20:25:20.688Z,100279.31
2019-01-08T20:27:51.441Z,100269.45
2019-01-08T20:30:22.009Z,100267.34
2019-01-08T20:32:52.646Z,100261.44
2019-01-08T20:35:23.478Z,100262.33
2019-01-08T20:37:53.889Z,100252.88
2019-01-08T20:40:25.459Z,100229.63
2019-01-08T20:42:55.966Z,100244.39
2019-01-08T20:45:26.633Z,100242.78
2019-01-08T20:47:57.116Z,100246.28
2019-01-08T20:50:28.964Z,100239.54
2019-01-08T20:52:59.578Z,100237.91
2019-01-08T20:55:30.195Z,100231.55
2019-01-08T20:58:00.887Z,100234.53
2019-01-08T21:00:31.487Z,100232.86
2019-01-08T21:03:02.116Z,100232.38
2019-01-08T21:05:33.714Z,100226.84
2019-01-08T21:08:04.548Z,100228.61
2019-01-08T21:10:35.079Z,100229.47
2019-01-08T21:13:05.736Z,100225.19
2019-01-08T21:15:36.242Z,100219.17
2019-01-08T21:18:06.752Z,100225.10
2019-01-08T21:20:37.519Z,100225.10
2019-01-08T21:23:09.881Z,100217.45
2019-01-08T21:25:40.302Z,100215.73
2019-01-08T21:28:10.810Z,100217.03
2019-01-08T21:30:41.292Z,100209.34
2019-01-08T21:33:12.015Z,100210.14
2019-01-08T21:35:42.698Z,100207.22
2019-01-08T21:38:13.395Z,100204.19
2019-01-08T21:40:43.911Z,100207.22
2019-01-08T21:43:14.991Z,100203.41
2019-01-08T21:45:45.354Z,100196.20
2019-01-08T21:48:20.030Z,100199.59
2019-01-08T21:50:50.437Z,100199.61
2019-01-08T21:53:21.197Z,100189.37
2019-01-08T21:55:51.830Z,100185.52
2019-01-08T21:58:22.323Z,100193.55
2019-01-08T22:00:53.080Z,100178.24
2019-01-08T22:03:23.879Z,100181.29
2019-01-08T22:05:54.821Z,100183.89
2019-01-08T22:08:25.513Z,100179.62
2019-01-08T22:10:55.972Z,100175.44
2019-01-08T22:13:26.375Z,100168.96
2019-01-08T22:15:56.964Z,100165.98
2019-01-08T22:18:27.653Z,100166.44
2019-01-08T22:20:58.167Z,100163.08
2019-01-08T22:23:28.862Z,100152.95
2019-01-08T22:25:59.391Z,100164.50
2019-01-08T22:28:32.336Z,100156.30
2019-01-08T22:31:03.344Z,100150.34
2019-01-08T22:33:33.961Z,100155.37
2019-01-08T22:36:04.553Z,100148.95
2019-01-08T22:38:35.235Z,100144.67
2019-01-08T22:41:06.430Z,100145.97
2019-01-08T22:43:36.910Z,100144.22
2019-01-08T22:46:07.532Z,100145.55
2019-01-08T22:48:38.126Z,100147.89
2019-01-08T22:51:08.706Z,100147.82
2019-01-08T22:53:39.451Z,100145.64
2019-01-08T22:56:10.025Z,100135.77
2019-01-08T22:58:40.733Z,100129.84
2019-01-08T23:01:26.327Z,100135.91
2019-01-08T23:03:57.053Z,100130.43
2019-01-08T23:06:27.648Z,100125.27
2019-01-08T23:08:58.336Z,100113.80
2019-01-08T23:11:29.014Z,100111.87
2019-01-08T23:13:59.835Z,100112.81
2019-01-08T23:16:30.336Z,100113.73
2019-01-08T23:19:00.911Z,100102.56
2019-01-08T23:21:31.506Z,100102.26
2019-01-08T23:24:02.054Z,100101.64
2019-01-08T23:26:32.745Z,100093.03
2019-01-08T23:29:03.430Z,100095.97
2019-01-08T23:31:33.924Z,100095.36
2019-01-08T23:34:04.790Z,100092.14
2019-01-08T23:36:38.054Z,100092.78
2019-01-08T23:39:10.587Z,100090.24
2019-01-08T23:41:41.295Z,100090.14
2019-01-08T23:44:11.659Z,100088.53
2019-01-08T23:46:42.319Z,100090.24
2019-01-08T23:49:13.825Z,100091.19
2019-01-08T23:51:44.887Z,100086.58
2019-01-08T23:54:17.192Z,100091.63
2019-01-08T23:56:49.561Z,100091.19
2019-01-08T23:59:20.094Z,100094.96
